Time;durP1;ratioP1;P1;durP2;ratioP2;P2;SDS_P1;SDS_P2;PMS_P1;PMS_P2;Temp;Humidity;BMP_temperature;BMP_pressure;BME280_temperature;BME280_humidity;BME280_pressure;Samples;Min_cycle;Max_cycle;Signal;HPM_P1;HPM_P2
2022/04/26 03:36:15;;;;;;;;;;;;;;;;;;5114563;28;20374;-75
2022/04/26 03:38:43;;;;;;;;;;;;;;;;;;5115341;28;19904;-75
2022/04/26 03:41:09;;;;;;;;;;;;;;;;;;5115268;28;19941;-75
2022/04/26 03:43:35;;;;;;;;;;;;;;;;;;5114917;28;19998;-75
2022/04/26 03:46:01;;;;;;;;;;;;;;;;;;5115173;28;19908;-75
2022/04/26 03:48:26;;;;;;;;;;;;;;;;;;5114542;28;20331;-74
2022/04/26 03:50:52;;;;;;;;;;;;;;;;;;5114988;28;20044;-75
2022/04/26 03:53:18;;;;;;;;;;;;;;;;;;5114355;28;20247;-74
2022/04/26 03:55:44;;;;;;;;;;;;;;;;;;5115013;28;19919;-74
2022/04/26 03:58:10;;;;;;;;;;;;;;;;;;5114907;28;20298;-74
2022/04/26 04:00:36;;;;;;;;;;;;;;;;;;5114231;28;19918;-75
2022/04/26 04:03:02;;;;;;;;;;;;;;;;;;5115233;28;20309;-74
2022/04/26 04:05:28;;;;;;;;;;;;;;;;;;5114446;28;19908;-74
2022/04/26 04:07:54;;;;;;;;;;;;;;;;;;5114630;28;19972;-74
2022/04/26 04:10:20;;;;;;;;;;;;;;;;;;5114014;28;19904;-74
2022/04/26 04:12:46;;;;;;;;;;;;;;;;;;5114668;28;20407;-74
2022/04/26 04:15:11;;;;;;;;;;;;;;;;;;5114632;28;19904;-74
2022/04/26 04:17:37;;;;;;;;;;;;;;;;;;5113878;28;20271;-74
2022/04/26 04:20:03;;;;;;;;;;;;;;;;;;5114046;28;19904;-75
2022/04/26 04:22:29;;;;;;;;;;;;;;;;;;5113877;28;19904;-74
2022/04/26 04:24:55;;;;;;;;;;;;;;;;;;5114355;28;20056;-74
2022/04/26 04:27:21;;;;;;;;;;;;;;;;;;5113618;28;20236;-74
2022/04/26 04:29:47;;;;;;;;;;;;;;;;;;5114333;28;19904;-76
2022/04/26 04:32:13;;;;;;;;;;;;;;;;;;5114307;28;19954;-76
2022/04/26 04:34:39;;;;;;;;;;;;;;;;;;5113915;28;20474;-76
2022/04/26 04:37:05;;;;;;;;;;;;;;;;;;5114242;28;20350;-77
2022/04/26 04:39:31;;;;;;;;;;;;;;;;;;5113471;28;19904;-78
2022/04/26 04:41:59;;;;;;;;;;;;;;;;;;5113732;28;19970;-77
2022/04/26 04:44:25;;;;;;;;;;;;;;;;;;5113482;28;19916;-77
2022/04/26 04:46:51;;;;;;;;;;;;;;;;;;5114037;28;19908;-78
2022/04/26 04:49:17;;;;;;;;;;;;;;;;;;5094882;28;20428;-76
2022/04/26 04:51:43;;;;;;;;;;;;;;;;;;5113859;28;19903;-78
2022/04/26 04:54:09;;;;;;;;;;;;;;;;;;5113905;28;19998;-78
2022/04/26 04:56:35;;;;;;;;;;;;;;;;;;5112988;28;19912;-77
2022/04/26 04:59:01;;;;;;;;;;;;;;;;;;5113821;28;19904;-77
2022/04/26 05:01:27;;;;;;;;;;;;;;;;;;5113107;28;20388;-78
2022/04/26 05:03:53;;;;;;;;;;;;;;;;;;5113875;28;19904;-78
2022/04/26 05:06:18;;;;;;;;;;;;;;;;;;5112778;28;19908;-78
2022/04/26 05:08:44;;;;;;;;;;;;;;;;;;5113535;28;19904;-78
2022/04/26 05:11:10;;;;;;;;;;;;;;;;;;5113384;28;19908;-78
2022/04/26 05:13:36;;;;;;;;;;;;;;;;;;5113085;28;19910;-78
2022/04/26 05:16:02;;;;;;;;;;;;;;;;;;5112494;28;19919;-77
2022/04/26 05:18:28;;;;;;;;;;;;;;;;;;5113041;28;20334;-78
2022/04/26 05:20:54;;;;;;;;;;;;;;;;;;5107270;28;19915;-78
2022/04/26 05:26:04;;;;;;;;;;;;;;;;;;5092672;28;19958;-79
2022/04/26 05:28:31;;;;;;;;;;;;;;;;;;5110422;28;19912;-79
2022/04/26 05:30:57;;;;;;;;;;;;;;;;;;5113374;28;19908;-80
2022/04/26 05:33:23;;;;;;;;;;;;;;;;;;5112943;28;19950;-79
2022/04/26 05:35:48;;;;;;;;;;;;;;;;;;5093568;28;19939;-79
2022/04/26 05:38:15;;;;;;;;;;;;;;;;;;5103975;28;19914;-79
2022/04/26 05:40:41;;;;;;;;;;;;;;;;;;5074224;28;19912;-79
2022/04/26 05:43:07;;;;;;;;;;;;;;;;;;5093059;28;20296;-78
2022/04/26 05:45:33;;;;;;;;;;;;;;;;;;5092358;28;19908;-73
2022/04/26 05:47:59;;;;;;;;;;;;;;;;;;5092873;28;20009;-75
2022/04/26 05:50:25;;;;;;;;;;;;;;;;;;5096184;28;19908;-76
2022/04/26 05:52:50;;;;;;;;;;;;;;;;;;5113240;28;19907;-72
2022/04/26 05:55:16;;;;;;;;;;;;;;;;;;5113117;28;19908;-69
2022/04/26 05:57:42;;;;;;;;;;;;;;;;;;5111167;28;19908;-75
2022/04/26 06:00:08;;;;;;;;;;;;;;;;;;5094917;28;19915;-75
2022/04/26 06:02:34;;;;;;;;;;;;;;;;;;5112465;28;19904;-73
2022/04/26 06:05:00;;;;;;;;;;;;;;;;;;5113191;28;19903;-77
2022/04/26 06:07:27;;;;;;;;;;;;;;;;;;5108941;28;19923;-77
2022/04/26 06:09:53;;;;;;;;;;;;;;;;;;5090209;28;19948;-75
2022/04/26 06:12:20;;;;;;;;;;;;;;;;;;5109382;28;19949;-72
2022/04/26 06:14:46;;;;;;;;;;;;;;;;;;5102049;28;19903;-73
2022/04/26 06:17:12;;;;;;;;;;;;;;;;;;5115223;28;19904;-73
2022/04/26 06:19:37;;;;;;;;;;;;;;;;;;5116290;28;19903;-75
2022/04/26 06:22:03;;;;;;;;;;;;;;;;;;5115256;28;19919;-75
2022/04/26 06:24:29;;;;;;;;;;;;;;;;;;5115567;28;19914;-75
2022/04/26 06:26:55;;;;;;;;;;;;;;;;;;5105927;28;20364;-75
2022/04/26 06:29:21;;;;;;;;;;;;;;;;;;5077511;28;19938;-72
2022/04/26 06:31:47;;;;;;;;;;;;;;;;;;5096173;28;19908;-75
2022/04/26 06:34:13;;;;;;;;;;;;;;;;;;5097959;28;20361;-75
2022/04/26 06:36:39;;;;;;;;;;;;;;;;;;5108974;28;19922;-76
2022/04/26 06:39:05;;;;;;;;;;;;;;;;;;5116115;28;20333;-75
2022/04/26 06:41:31;;;;;;;;;;;;;;;;;;5114385;28;19945;-74
2022/04/26 06:43:57;;;;;;;;;;;;;;;;;;5112561;28;20061;-74
2022/04/26 06:46:23;;;;;;;;;;;;;;;;;;5078437;28;20011;-73
2022/04/26 06:48:49;;;;;;;;;;;;;;;;;;5095533;28;20260;-74
2022/04/26 06:51:15;;;;;;;;;;;;;;;;;;5095799;28;19915;-75
2022/04/26 06:53:41;;;;;;;;;;;;;;;;;;5095323;28;20259;-74
2022/04/26 06:56:06;;;;;;;;;;;;;;;;;;5095141;28;19977;-74
2022/04/26 06:58:33;;;;;;;;;;;;;;;;;;5095025;28;19915;-74
2022/04/26 07:00:59;;;;;;;;;;;;;;;;;;5095459;28;19928;-75
2022/04/26 07:03:25;;;;;;;;;;;;;;;;;;5094770;28;19947;-73
2022/04/26 07:05:52;;;;;;;;;;;;;;;;;;5095472;28;19961;-75
2022/04/26 07:08:18;;;;;;;;;;;;;;;;;;5095494;28;19977;-75
2022/04/26 07:10:44;;;;;;;;;;;;;;;;;;5094730;28;19916;-74
2022/04/26 07:13:10;;;;;;;;;;;;;;;;;;5095133;28;19908;-74
2022/04/26 07:15:35;;;;;;;;;;;;;;;;;;5094730;28;19908;-74
2022/04/26 07:18:01;;;;;;;;;;;;;;;;;;5095381;28;19908;-74
2022/04/26 07:20:30;;;;;;;;;;;;;;;;;;5076428;28;19916;-74
2022/04/26 07:22:55;;;;;;;;;;;;;;;;;;5095177;28;19911;-74
2022/04/26 07:25:21;;;;;;;;;;;;;;;;;;5094822;28;19922;-74
2022/04/26 07:27:47;;;;;;;;;;;;;;;;;;5094003;28;19924;-74
2022/04/26 07:30:13;;;;;;;;;;;;;;;;;;5095323;28;19908;-74
2022/04/26 07:35:24;;;;;;;;;;;;;;;;;;5094767;28;19962;-74
2022/04/26 07:37:50;;;;;;;;;;;;;;;;;;5094657;28;20009;-77
2022/04/26 07:40:15;;;;;;;;;;;;;;;;;;5094779;28;20268;-75
2022/04/26 07:42:41;;;;;;;;;;;;;;;;;;5094202;28;19915;-75
2022/04/26 07:45:07;;;;;;;;;;;;;;;;;;5094789;28;20474;-75
2022/04/26 07:47:33;;;;;;;;;;;;;;;;;;5094209;28;19908;-75
2022/04/26 07:49:59;;;;;;;;;;;;;;;;;;5094638;28;20015;-75
2022/04/26 07:52:27;;;;;;;;;;;;;;;;;;5094633;28;19934;-74
2022/04/26 07:54:52;;;;;;;;;;;;;;;;;;5094429;28;19954;-74
2022/04/26 07:57:18;;;;;;;;;;;;;;;;;;5094281;28;19927;-74
2022/04/26 07:59:44;;;;;;;;;;;;;;;;;;5093926;28;19999;-75
2022/04/26 08:02:10;;;;;;;;;;;;;;;;;;5094041;28;19920;-75
2022/04/26 08:04:36;;;;;;;;;;;;;;;;;;5093742;28;19908;-75
2022/04/26 08:07:02;;;;;;;;;;;;;;;;;;5094408;28;19908;-75
2022/04/26 08:09:28;;;;;;;;;;;;;;;;;;5093602;28;20006;-74
2022/04/26 08:11:54;;;;;;;;;;;;;;;;;;5094191;28;19954;-75
2022/04/26 08:14:20;;;;;;;;;;;;;;;;;;5094277;28;20043;-75
2022/04/26 08:16:46;;;;;;;;;;;;;;;;;;5093576;28;20037;-75
2022/04/26 08:19:12;;;;;;;;;;;;;;;;;;5094157;28;19959;-75
2022/04/26 08:21:38;;;;;;;;;;;;;;;;;;5093358;28;20424;-75
2022/04/26 08:29:33;;;;;;;;;;;;;;;;;;5093122;28;19915;-75
2022/04/26 08:31:59;;;;;;;;;;;;;;;;;;5093524;28;19912;-74
2022/04/26 08:34:25;;;;;;;;;;;;;;;;;;5093857;28;19908;-75
2022/04/26 08:36:51;;;;;;;;;;;;;;;;;;5093085;28;19910;-74
2022/04/26 08:39:17;;;;;;;;;;;;;;;;;;5093781;28;19954;-75
2022/04/26 08:41:43;;;;;;;;;;;;;;;;;;5093078;28;19920;-74
2022/04/26 08:44:09;;;;;;;;;;;;;;;;;;5093718;28;19912;-75
2022/04/26 08:52:08;;;;;;;;;;;;;;;;;;5093384;28;19915;-74
2022/04/26 08:54:34;;;;;;;;;;;;;;;;;;5093067;28;20000;-74
2022/04/26 08:57:00;;;;;;;;;;;;;;;;;;5093673;28;19955;-75
2022/04/26 08:59:26;;;;;;;;;;;;;;;;;;5093543;28;20344;-74
2022/04/26 09:01:52;;;;;;;;;;;;;;;;;;5092734;28;19915;-74
2022/04/26 09:04:18;;;;;;;;;;;;;;;;;;5093085;28;19934;-75
2022/04/26 09:06:45;;;;;;;;;;;;;;;;;;5092695;28;19914;-74
2022/04/26 09:09:11;;;;;;;;;;;;;;;;;;5093390;28;19908;-75
2022/04/26 09:11:37;;;;;;;;;;;;;;;;;;5093032;28;19915;-74
2022/04/26 09:14:03;;;;;;;;;;;;;;;;;;5093352;28;19947;-74
2022/04/26 09:16:29;;;;;;;;;;;;;;;;;;5093229;28;19918;-75
2022/04/26 09:18:55;;;;;;;;;;;;;;;;;;5074405;28;20314;-74
2022/04/26 09:21:21;;;;;;;;;;;;;;;;;;5093075;28;19916;-75
2022/04/26 09:23:47;;;;;;;;;;;;;;;;;;5092602;28;19909;-75
2022/04/26 09:26:13;;;;;;;;;;;;;;;;;;5092882;28;19935;-75
2022/04/26 09:28:39;;;;;;;;;;;;;;;;;;5092615;28;19912;-74
2022/04/26 09:31:05;;;;;;;;;;;;;;;;;;5075208;28;19908;-74
2022/04/26 09:33:31;;;;;;;;;;;;;;;;;;5093085;28;19908;-74
2022/04/26 09:35:57;;;;;;;;;;;;;;;;;;5093452;28;19908;-74
2022/04/26 09:38:23;;;;;;;;;;;;;;;;;;5092663;28;19909;-74
2022/04/26 09:40:49;;;;;;;;;;;;;;;;;;5092310;28;19920;-74
2022/04/26 09:43:15;;;;;;;;;;;;;;;;;;5093241;28;19955;-74
2022/04/26 09:45:41;;;;;;;;;;;;;;;;;;5092620;28;19915;-74
2022/04/26 09:48:07;;;;;;;;;;;;;;;;;;5092927;28;20250;-75
2022/04/26 09:50:34;;;;;;;;;;;;;;;;;;5092573;28;19908;-70
2022/04/26 09:53:01;;;;;;;;;;;;;;;;;;5096443;28;19915;-74
2022/04/26 09:55:27;;;;;;;;;;;;;;;;;;5096790;28;19916;-74
2022/04/26 09:57:53;;;;;;;;;;;;;;;;;;5096022;28;20123;-74
2022/04/26 10:00:19;;;;;;;;;;;;;;;;;;5096760;28;19999;-74
2022/04/26 10:02:45;;;;;;;;;;;;;;;;;;5105703;28;19912;-74
2022/04/26 10:05:11;;;;;;;;;;;;;;;;;;5090354;28;19965;-74
2022/04/26 10:07:37;;;;;;;;;;;;;;;;;;5105573;28;20285;-74
2022/04/26 10:10:03;;;;;;;;;;;;;;;;;;5105393;28;19912;-82
2022/04/26 10:12:29;;;;;;;;;;;;;;;;;;5112935;28;19920;-72
2022/04/26 10:14:54;;;;;;;;;;;;;;;;;;5106245;28;19911;-71
2022/04/26 10:17:20;;;;;;;;;;;;;;;;;;5105770;28;20347;-74
2022/04/26 10:19:47;;;;;;;;;;;;;;;;;;5085276;28;19908;-77
2022/04/26 10:22:16;;;;;;;;;;;;;;;;;;5086077;28;20020;-73
2022/04/26 10:24:42;;;;;;;;;;;;;;;;;;5102913;28;19908;-72
2022/04/26 10:27:08;;;;;;;;;;;;;;;;;;5104700;28;20286;-75
2022/04/26 10:29:34;;;;;;;;;;;;;;;;;;5084841;28;19909;-72
2022/04/26 10:32:00;;;;;;;;;;;;;;;;;;5076975;28;20328;-74
2022/04/26 10:34:27;;;;;;;;;;;;;;;;;;5101637;28;19912;-74
2022/04/26 10:36:54;;;;;;;;;;;;;;;;;;5106458;28;19912;-74
2022/04/26 10:39:20;;;;;;;;;;;;;;;;;;5097532;28;19908;-74
2022/04/26 10:41:45;;;;;;;;;;;;;;;;;;5091706;28;19916;-73
2022/04/26 10:44:11;;;;;;;;;;;;;;;;;;5092429;28;19943;-74
2022/04/26 10:46:38;;;;;;;;;;;;;;;;;;5095612;28;19916;-74
2022/04/26 10:49:03;;;;;;;;;;;;;;;;;;5090731;28;19918;-73
2022/04/26 10:51:29;;;;;;;;;;;;;;;;;;5104413;28;19915;-73
2022/04/26 10:53:55;;;;;;;;;;;;;;;;;;5111623;28;20222;-73
2022/04/26 10:56:21;;;;;;;;;;;;;;;;;;5112660;28;19916;-74
2022/04/26 10:58:47;;;;;;;;;;;;;;;;;;5103685;28;19922;-73
2022/04/26 11:01:13;;;;;;;;;;;;;;;;;;5091808;28;19924;-73
2022/04/26 11:03:39;;;;;;;;;;;;;;;;;;5098913;28;19926;-73
2022/04/26 11:06:06;;;;;;;;;;;;;;;;;;5097791;28;20511;-73
2022/04/26 11:08:32;;;;;;;;;;;;;;;;;;5091974;28;20315;-74
2022/04/26 11:11:01;;;;;;;;;;;;;;;;;;5091470;28;19958;-73
2022/04/26 11:13:26;;;;;;;;;;;;;;;;;;5091421;28;19947;-73
2022/04/26 11:16:06;;;;;;;;;;;10.50;99.90;;;;;;5091750;28;19947;-74
2022/04/26 11:18:32;;;;;;;;;;;;;;;;;;5086624;28;19912;-74
2022/04/26 11:20:57;;;;;;;;;;;;;;;;;;5097979;28;20315;-73
2022/04/26 11:28:53;;;;;;;;;;;;;;;;;;5104136;28;19914;-74
2022/04/26 11:31:19;;;;;;;;;;;;;;;;;;5111865;28;19939;-73
2022/04/26 11:33:45;;;;;;;;;;;;;;;;;;5103558;28;19916;-73
2022/04/26 11:36:12;;;;;;;;;;;;;;;;;;5080295;28;19915;-73
2022/04/26 11:38:38;;;;;;;;;;;;;;;;;;5111333;28;19914;-73
2022/04/26 11:41:04;;;;;;;;;;;;;;;;;;5111704;28;20010;-73
2022/04/26 11:43:37;;;;;;;;;;;;;;;;;;5105463;28;19929;-73
2022/04/26 11:46:03;;;;;;;;;;;;;;;;;;5090478;28;20442;-73
2022/04/26 11:48:29;;;;;;;;;;;;;;;;;;5091209;28;19950;-73
2022/04/26 11:50:55;;;;;;;;;;;;;;;;;;5086827;28;19944;-73
2022/04/26 11:53:21;;;;;;;;;;;;;;;;;;5111870;28;19911;-74
2022/04/26 11:55:47;;;;;;;;;;;;;;;;;;5092501;28;19919;-73
2022/04/26 11:58:13;;;;;;;;;;;;;;;;;;5111329;28;19923;-74
2022/04/26 12:00:39;;;;;;;;;;;;;;;;;;5111155;28;19928;-70
2022/04/26 12:03:05;;;;;;;;;;;;;;;;;;5110888;28;20443;-74
2022/04/26 12:05:31;;;;;;;;;;;;;;;;;;5111937;28;19908;-74
2022/04/26 12:07:57;;;;;;;;;;;;;;;;;;5112643;28;19994;-74
2022/04/26 12:10:23;;;;;;;;;;;;;;;;;;5114692;28;19908;-75
2022/04/26 12:12:48;;;;;;;;;;;;;;;;;;5113959;28;20383;-74
2022/04/26 12:15:14;;;;;;;;;;;;;;;;;;5113809;28;19908;-74
2022/04/26 12:17:40;;;;;;;;;;;;;;;;;;5114239;28;19908;-71
2022/04/26 12:20:06;;;;;;;;;;;;;;;;;;5114412;28;19951;-75
2022/04/26 12:22:32;;;;;;;;;;;;;;;;;;5114408;28;19922;-74
2022/04/26 12:24:58;;;;;;;;;;;;;;;;;;5113793;28;19908;-74
2022/04/26 12:27:26;;;;;;;;;;;;;;;;;;5113921;28;19920;-74
2022/04/26 12:29:52;;;;;;;;;;;;;;;;;;5095375;28;19908;-74
2022/04/26 12:32:18;;;;;;;;;;;;;;;;;;5096162;28;20015;-75
2022/04/26 12:34:44;;;;;;;;;;;;;;;;;;5113618;28;20344;-74
2022/04/26 12:37:11;;;;;;;;;;;;;;;;;;5114178;28;19914;-75
2022/04/26 12:39:36;;;;;;;;;;;;;;;;;;5095878;28;20241;-74
2022/04/26 12:42:02;;;;;;;;;;;;;;;;;;5095168;28;19941;-74
2022/04/26 12:44:29;;;;;;;;;;;;;;;;;;5114002;28;19908;-74
2022/04/26 12:52:43;;;;;;;;;;;;;;;;;;5070380;28;19947;-74
2022/04/26 12:55:09;;;;;;;;;;;;;;;;;;5095950;28;19912;-75
2022/04/26 12:57:35;;;;;;;;;;;;;;;;;;5113764;28;19958;-75
2022/04/26 13:00:01;;;;;;;;;;;;;;;;;;5094902;28;19908;-74
2022/04/26 13:02:27;;;;;;;;;;;;;;;;;;5095380;28;20389;-74
2022/04/26 13:04:53;;;;;;;;;;;;;;;;;;5112805;28;19908;-74
2022/04/26 13:07:19;;;;;;;;;;;;;;;;;;5113769;28;19912;-75
2022/04/26 13:09:44;;;;;;;;;;;;;;;;;;5113389;28;19908;-74
2022/04/26 13:12:10;;;;;;;;;;;;;;;;;;5113643;28;20378;-75
2022/04/26 13:14:36;;;;;;;;;;;;;;;;;;5113596;28;19907;-75
2022/04/26 13:17:02;;;;;;;;;;;;;;;;;;5113151;28;19908;-75
2022/04/26 13:19:28;;;;;;;;;;;;;;;;;;5113491;28;19960;-75
2022/04/26 13:21:54;;;;;;;;;;;;;;;;;;5094224;28;19922;-75
2022/04/26 13:24:28;;;;;;;;;;;;;;;;;;5095148;28;19908;-76
2022/04/26 13:26:53;;;;;;;;;;;;;;;;;;5093368;28;19923;-75
2022/04/26 13:29:19;;;;;;;;;;;14.90;20.80;;;;;;5113670;28;19912;-76
2022/04/26 13:31:45;;;;;;;;;;;;;;;;;;5113033;28;20434;-71
2022/04/26 13:34:11;;;;;;;;;;;14.30;29.60;;;;;;5095182;28;19908;-76
2022/04/26 13:36:37;;;;;;;;;;;;;;;;;;5113403;28;19952;-76
2022/04/26 13:39:03;;;;;;;;;;;;;;;;;;5113046;28;20002;-75
2022/04/26 13:41:31;;;;;;;;;;;16.60;9.80;;;;;;5113226;28;19926;-75
2022/04/26 13:43:56;;;;;;;;;;;16.50;9.60;;;;;;5094425;28;19907;-75
2022/04/26 13:46:23;;;;;;;;;;;16.60;13.70;;;;;;5095025;28;20335;-75
2022/04/26 13:48:50;;;;;;;;;;;;;;;;;;5112724;28;19959;-74
2022/04/26 13:51:16;;;;;;;;;;;;;;;;;;5113262;28;19930;-74
2022/04/26 13:53:42;;;;;;;;;;;;;;;;;;5112876;28;20326;-75
2022/04/26 13:56:09;;;;;;;;;;;;;;;;;;5112350;28;19947;-74
2022/04/26 13:58:35;;;;;;;;;;;;;;;;;;5113320;28;19912;-75
2022/04/26 14:01:01;;;;;;;;;;;;;;;;;;5094170;28;19916;-75
2022/04/26 14:03:30;;;;;;;;;;;;;;;;;;5113124;28;19950;-75
2022/04/26 14:05:56;;;;;;;;;;;;;;;;;;5112561;28;19912;-75
2022/04/26 14:08:22;;;;;;;;;;;;;;;;;;5113056;28;19915;-74
2022/04/26 14:10:48;;;;;;;;;;;;;;;;;;5112533;28;19908;-74
2022/04/26 14:13:14;;;;;;;;;;;;;;;;;;5113165;28;20367;-74
2022/04/26 14:23:53;;;;;;;;;;;15.00;1.00;;;;;;5112101;28;19915;-74
2022/04/26 14:26:20;;;;;;;;;;;;;;;;;;5112642;28;19923;-74
2022/04/26 14:28:46;;;;;;;;;;;;;;;;;;5113014;28;20002;-74
2022/04/26 14:31:12;;;;;;;;;;;;;;;;;;5112233;28;20408;-73
2022/04/26 14:33:38;;;;;;;;;;;;;;;;;;5112920;28;19907;-74
2022/04/26 14:36:04;;;;;;;;;;;;;;;;;;5112150;28;19908;-74
2022/04/26 14:38:30;;;;;;;;;;;;;;;;;;5115252;28;19919;-74
2022/04/26 14:40:56;;;;;;;;;;;;;;;;;;5115774;28;19919;-73
2022/04/26 14:43:22;;;;;;;;;;;;;;;;;;5098006;28;20430;-73
2022/04/26 14:45:50;;;;;;;;;;;;;;;;;;5116377;28;19908;-73
2022/04/26 14:48:16;;;;;;;;;;;;;;;;;;5116001;28;20381;-73
2022/04/26 14:50:42;;;;;;;;;;;;;;;;;;5116011;28;20279;-73
2022/04/26 14:53:08;;;;;;;;;;;;;;;;;;5115679;28;19908;-73
2022/04/26 14:55:34;;;;;;;;;;;;;;;;;;5097805;28;19923;-74
2022/04/26 14:58:00;;;;;;;;;;;;;;;;;;5115525;28;19912;-74
2022/04/26 15:00:25;;;;;;;;;;;;;;;;;;5115986;28;19918;-73
2022/04/26 15:02:51;;;;;;;;;;;;;;;;;;5097108;28;20370;-73
2022/04/26 15:05:18;;;;;;;;;;;;;;;;;;5115682;28;19908;-73
2022/04/26 15:10:29;;;;;;;;;;;;;;;;;;5115693;28;19977;-74
2022/04/26 15:18:25;;;;;;;;;;;;;;;;;;5115581;28;19930;-74
2022/04/26 15:20:52;;;;;;;;;;;;;;;;;;5115652;28;20352;-74
2022/04/26 15:23:17;;;;;;;;;;;;;;;;;;5115856;28;19908;-74
2022/04/26 15:25:50;;;;;;;;;;;;;;;;;;5115385;28;19912;-74
2022/04/26 15:28:16;;;;;;;;;;;;;;;;;;5114961;28;19967;-74
2022/04/26 15:30:42;;;;;;;;;;;;;;;;;;5115439;28;19915;-74
2022/04/26 15:33:08;;;;;;;;;;;;;;;;;;5114841;28;19908;-75
2022/04/26 15:35:34;;;;;;;;;;;;;;;;;;5097223;28;19908;-75
2022/04/26 15:38:00;;;;;;;;;;;;;;;;;;5096499;28;19912;-74
2022/04/26 15:40:25;;;;;;;;;;;;;;;;;;5096899;28;19908;-75
2022/04/26 15:42:51;;;;;;;;;;;;;;;;;;5115258;28;19958;-74
2022/04/26 15:45:17;;;;;;;;;;;;;;;;;;5114351;28;19912;-74
2022/04/26 15:47:43;;;;;;;;;;;;;;;;;;5096968;28;20001;-74
2022/04/26 15:50:09;;;;;;;;;;;;;;;;;;5113882;28;20371;-74
2022/04/26 15:52:37;;;;;;;;;;;;;;;;;;5115040;28;19908;-75
2022/04/26 15:55:04;;;;;;;;;;;;;;;;;;5114580;28;19907;-74
2022/04/26 15:57:30;;;;;;;;;;;;;;;;;;5096671;28;19918;-75
2022/04/26 15:59:56;;;;;;;;;;;;;;;;;;5113996;28;19908;-74
2022/04/26 16:02:23;;;;;;;;;;;;;;;;;;5114902;28;20367;-75
2022/04/26 16:04:49;;;;;;;;;;;;;;;;;;5114796;28;19918;-74
2022/04/26 16:07:17;;;;;;;;;;;;;;;;;;5095197;28;20378;-74
2022/04/26 16:20:42;;;;;;;;;;;;;;;;;;5114294;28;19923;-74
2022/04/26 16:23:08;;;;;;;;;;;;;;;;;;5109032;28;20279;-73
2022/04/26 16:25:34;;;;;;;;;;;;;;;;;;5106660;28;19996;-73
2022/04/26 16:28:00;;;;;;;;;;;;;;;;;;5098005;28;20007;-73
2022/04/26 16:30:28;;;;;;;;;;;;;;;;;;5108438;28;19912;-73
2022/04/26 16:32:54;;;;;;;;;;;;;;;;;;5109044;28;20349;-73
2022/04/26 16:35:21;;;;;;;;;;;;;;;;;;5107968;28;19912;-73
2022/04/26 16:37:47;;;;;;;;;;;;;;;;;;5108873;28;20344;-71
2022/04/26 16:40:13;;;;;;;;;;;;;;;;;;5107964;28;19916;-72
2022/04/26 16:42:39;;;;;;;;;;;;;;;;;;5108463;28;19964;-72
2022/04/26 16:45:04;;;;;;;;;;;;;;;;;;5107575;28;19912;-72
2022/04/26 16:47:30;;;;;;;;;;;;;;;;;;5103524;28;19908;-72
2022/04/26 16:49:56;;;;;;;;;;;;;;;;;;5108321;28;20010;-71
2022/04/26 16:52:22;;;;;;;;;;;;;;;;;;5090084;28;20365;-72
2022/04/26 16:54:49;;;;;;;;;;;;;;;;;;5108039;28;19908;-72
2022/04/26 16:57:15;;;;;;;;;;;13.00;32.30;;;;;;5113515;28;20375;-74
2022/04/26 16:59:41;;;;;;;;;;;12.90;33.40;;;;;;5103605;28;19949;-73
2022/04/26 17:02:07;;;;;;;;;;;;;;;;;;5091869;28;19912;-73
2022/04/26 17:04:33;;;;;;;;;;;;;;;;;;5075295;28;19904;-72
2022/04/26 17:06:59;;;;;;;;;;;12.10;69.30;;;;;;5092842;28;19949;-72
2022/04/26 17:09:24;;;;;;;;;;;13.10;76.90;;;;;;5093311;28;19904;-73
2022/04/26 17:11:51;;;;;;;;;;;;;;;;;;5093289;28;20327;-73
2022/04/26 17:14:17;;;;;;;;;;;;;;;;;;5092692;28;19904;-74
2022/04/26 17:16:46;;;;;;;;;;;;;;;;;;5093180;28;19911;-80
2022/04/26 17:19:12;;;;;;;;;;;;;;;;;;5097953;28;19904;-81
2022/04/26 17:21:38;;;;;;;;;;;;;;;;;;5093420;28;20036;-77
2022/04/26 17:24:04;;;;;;;;;;;;;;;;;;5110826;27;19911;-76
2022/04/26 17:26:30;;;;;;;;;;;;;;;;;;5113156;28;19920;-74
2022/04/26 17:28:56;;;;;;;;;;;;;;;;;;5089145;28;19912;-74
2022/04/26 17:31:22;;;;;;;;;;;;;;;;;;5083952;28;19912;-78
2022/04/26 17:33:50;;;;;;;;;;;;;;;;;;5102702;28;19913;-77
2022/04/26 17:36:16;;;;;;;;;;;;;;;;;;5100772;28;20360;-77
2022/04/26 17:38:42;;;;;;;;;;;;;;;;;;5103368;28;19912;-75
2022/04/26 17:41:08;;;;;;;;;;;;;;;;;;5093494;28;19939;-77
2022/04/26 17:43:34;;;;;;;;;;;;;;;;;;5110865;28;19937;-77
2022/04/26 17:46:00;;;;;;;;;;;;;;;;;;5112750;28;19912;-71
2022/04/26 17:48:26;;;;;;;;;;;;;;;;;;5103019;28;19997;-78
2022/04/26 17:50:52;;;;;;;;;;;;;;;;;;5104353;28;19914;-79
2022/04/26 17:58:47;;;;;;;;;;;;;;;;;;5103393;28;19973;-79
2022/04/26 18:01:14;;;;;;;;;;;;;;;;;;5101603;28;20387;-79
2022/04/26 18:03:39;;;;;;;;;;;;;;;;;;5108909;28;19916;-79
2022/04/26 18:06:05;;;;;;;;;;;;;;;;;;5112030;28;19915;-78
2022/04/26 18:08:31;;;;;;;;;;;;;;;;;;5104411;28;19919;-78
2022/04/26 18:10:58;;;;;;;;;;;;;;;;;;5108710;28;19912;-79
2022/04/26 18:13:23;;;;;;;;;;;;;;;;;;5096679;28;19936;-78
2022/04/26 18:15:54;;;;;;;;;;;;;;;;;;5096056;28;19923;-78
2022/04/26 18:18:20;;;;;;;;;;;;;;;;;;5113138;28;19957;-79
2022/04/26 18:20:46;;;;;;;;;;;;;;;;;;5094345;28;20279;-79
2022/04/26 18:23:12;;;;;;;;;;;;;;;;;;5109125;27;19919;-79
2022/04/26 18:28:23;;;;;;;;;;;;;;;;;;5115958;28;20019;-81
2022/04/26 18:30:49;;;;;;;;;;;;;;;;;;5115284;28;19951;-80
2022/04/26 18:33:15;;;;;;;;;;;;;;;;;;5112408;28;19965;-79
2022/04/26 18:35:40;;;;;;;;;;;;;;;;;;5116222;28;19943;-80
2022/04/26 18:38:06;;;;;;;;;;;;;;;;;;5111959;28;19918;-73
2022/04/26 18:40:32;;;;;;;;;;;;;;;;;;5100581;28;19908;-79
2022/04/26 18:42:58;;;;;;;;;;;;;;;;;;5095436;28;19909;-80
2022/04/26 18:45:25;;;;;;;;;;;11.20;98.80;;;;;;5076246;28;19904;-79
2022/04/26 18:47:53;;;;;;;;;;;12.50;98.70;;;;;;5077421;28;19909;-79
2022/04/26 18:50:18;;;;;;;;;;;11.10;98.60;;;;;;5087883;27;19916;-79
2022/04/26 18:52:43;;;;;;;;;;;11.10;99.50;;;;;;5095615;28;20105;-79
2022/04/26 18:55:09;;;;;;;;;;;11.20;99.50;;;;;;5109741;28;20378;-79
2022/04/26 18:57:35;;;;;;;;;;;11.10;99.90;;;;;;5105495;27;19912;-79
2022/04/26 19:00:01;;;;;;;;;;;;;;;;;;5116079;28;19918;-79
2022/04/26 19:02:27;;;;;;;;;;;;;;;;;;5095134;28;19916;-79
2022/04/26 19:04:53;;;;;;;;;;;;;;;;;;5115343;27;19919;-79
2022/04/26 19:07:18;;;;;;;;;;;;;;;;;;5107466;27;20355;-79
2022/04/26 19:12:29;;;;;;;;;;;;;;;;;;5115087;28;19914;-78
2022/04/26 19:14:54;;;;;;;;;;;;;;;;;;5115765;28;20271;-78
2022/04/26 19:17:21;;;;;;;;;;;;;;;;;;5115137;28;19932;-78
2022/04/26 19:19:47;;;;;;;;;;;;;;;;;;5115719;28;20245;-77
2022/04/26 19:22:14;;;;;;;;;;;;;;;;;;5115000;28;20071;-77
2022/04/26 19:24:40;;;;;;;;;;;;;;;;;;5114581;27;19967;-76
2022/04/26 19:27:06;;;;;;;;;;;;;;;;;;5114304;28;20022;-76
2022/04/26 19:29:32;;;;;;;;;;;;;;;;;;5115563;28;19915;-77
2022/04/26 19:31:58;;;;;;;;;;;;;;;;;;5115502;28;20004;-77
2022/04/26 19:34:24;;;;;;;;;;;;;;;;;;5112571;28;19958;-77
2022/04/26 19:36:50;;;;;;;;;;;;;;;;;;5085076;28;19912;-78
2022/04/26 19:39:16;;;;;;;;;;;;;;;;;;5114856;28;20396;-77
2022/04/26 19:41:42;;;;;;;;;;;;;;;;;;5115202;28;19915;-77
2022/04/26 19:44:08;;;;;;;;;;;;;;;;;;5114762;28;19908;-76
2022/04/26 19:46:34;;;;;;;;;;;;;;;;;;5096978;28;19908;-77
2022/04/26 19:48:59;;;;;;;;;;;;;;;;;;5114930;28;19911;-78
2022/04/26 19:51:25;;;;;;;;;;;;;;;;;;5114572;28;19995;-76
2022/04/26 19:53:51;;;;;;;;;;;;;;;;;;5096917;28;19914;-77
2022/04/26 19:56:17;;;;;;;;;;;;;;;;;;5114842;28;20293;-76
2022/04/26 19:58:45;;;;;;;;;;;;;;;;;;5104868;28;19995;-77
2022/04/26 20:01:12;;;;;;;;;;;;;;;;;;5093879;28;20422;-77
2022/04/26 20:03:38;;;;;;;;;;;;;;;;;;5094540;28;19908;-77
2022/04/26 20:06:04;;;;;;;;;;;;;;;;;;5097664;28;19999;-77
2022/04/26 20:08:30;;;;;;;;;;;;;;;;;;5107751;28;19916;-77
2022/04/26 20:10:56;;;;;;;;;;;;;;;;;;5109363;28;19935;-76
2022/04/26 20:13:22;;;;;;;;;;;;;;;;;;5104052;28;20268;-76
2022/04/26 20:15:48;;;;;;;;;;;;;;;;;;5110808;27;20363;-77
2022/04/26 20:18:14;;;;;;;;;;;;;;;;;;5101699;28;19908;-76
2022/04/26 20:20:40;;;;;;;;;;;;;;;;;;5113714;27;20372;-76
2022/04/26 20:23:05;;;;;;;;;;;;;;;;;;5116439;27;19952;-76
2022/04/26 20:29:45;;;;;;;;;;;;;;;;;;5114349;27;19922;-76
2022/04/26 20:31:04;;;;;;;;;;;11.00;99.90;;;;;;5104420;28;20418;-77
2022/04/26 20:33:29;;;;;;;;;;;11.40;99.90;;;;;;5111139;27;19912;-77
2022/04/26 20:35:55;;;;;;;;;;;;;;;;;;5114152;27;19911;-77
2022/04/26 20:38:21;;;;;;;;;;;;;;;;;;5114445;27;20279;-76
2022/04/26 20:40:47;;;;;;;;;;;;;;;;;;5111887;27;19916;-76
2022/04/26 20:43:13;;;;;;;;;;;;;;;;;;5092405;27;19960;-76
2022/04/26 20:45:38;;;;;;;;;;;11.00;97.00;;;;;;5110784;27;19912;-76
2022/04/26 20:48:04;;;;;;;;;;;;;;;;;;5111702;27;19954;-77
2022/04/26 20:50:30;;;;;;;;;;;;;;;;;;5103098;27;20409;-77
2022/04/26 20:52:56;;;;;;;;;;;;;;;;;;5110070;27;20359;-77
2022/04/26 20:55:22;;;;;;;;;;;;;;;;;;5091686;28;19933;-77
2022/04/26 20:57:47;;;;;;;;;;;10.60;78.20;;;;;;5113731;28;19935;-77
2022/04/26 21:00:13;;;;;;;;;;;;;;;;;;5113121;28;19915;-76
2022/04/26 21:02:39;;;;;;;;;;;;;;;;;;5113754;28;20263;-77
2022/04/26 21:05:05;;;;;;;;;;;;;;;;;;5113600;28;19976;-77
2022/04/26 21:07:31;;;;;;;;;;;;;;;;;;5094924;28;20225;-76
2022/04/26 21:09:57;;;;;;;;;;;;;;;;;;5113766;28;19943;-77
2022/04/26 21:12:23;;;;;;;;;;;10.40;68.80;;;;;;5113124;28;19949;-77